Time;durP1;ratioP1;P1;durP2;ratioP2;P2;SDS_P1;SDS_P2;PMS_P1;PMS_P2;Temp;Humidity;BMP_temperature;BMP_pressure;BME280_temperature;BME280_humidity;BME280_pressure;Samples;Min_cycle;Max_cycle;Signal;HPM_P1;HPM_P2
2022/03/11 00:00:56;;;;;;;20.90;10.98;;;;;;;;;;5042169;28;20089;-77
2022/03/11 00:03:22;;;;;;;18.17;9.77;;;;;;;;;;5042094;28;20029;-77
2022/03/11 00:05:47;;;;;;;19.70;10.07;;;;;;;;;;5042371;28;20206;-76
2022/03/11 00:08:13;;;;;;;24.13;10.77;;;;;;;;;;5041973;28;20080;-78
2022/03/11 00:10:39;;;;;;;17.27;10.13;;;;;;;;;;5041855;28;20068;-76
2022/03/11 00:13:04;;;;;;;16.95;9.70;;;;;;;;;;5041702;28;20065;-76
2022/03/11 00:15:30;;;;;;;21.27;10.00;;;;;;;;;;5040905;28;20030;-76
2022/03/11 00:17:55;;;;;;;29.55;10.75;;;;;;;;;;5042173;28;20021;-77
2022/03/11 00:20:21;;;;;;;26.23;10.95;;;;;;;;;;5040170;28;20079;-78
2022/03/11 00:22:51;;;;;;;21.20;10.40;;;;;;;;;;5040746;28;20025;-77
2022/03/11 00:25:18;;;;;;;28.98;11.10;;;;;;;;;;5041661;28;20025;-76
2022/03/11 00:27:44;;;;;;;20.50;10.10;;;;;;;;;;5041124;28;20022;-77
2022/03/11 00:30:10;;;;;;;25.05;10.23;;;;;;;;;;5041734;28;20025;-76
2022/03/11 00:32:36;;;;;;;21.75;10.23;;;;;;;;;;5041638;28;20059;-76
2022/03/11 00:35:02;;;;;;;22.33;10.20;;;;;;;;;;5041813;28;20025;-76
2022/03/11 00:37:28;;;;;;;22.23;9.85;;;;;;;;;;5041639;28;20022;-75
2022/03/11 00:39:54;;;;;;;15.30;9.10;;;;;;;;;;5040510;28;20037;-76
2022/03/11 00:42:19;;;;;;;18.77;9.82;;;;;;;;;;5039443;28;20025;-77
2022/03/11 00:44:44;;;;;;;22.10;9.95;;;;;;;;;;5041130;28;20067;-76
2022/03/11 00:47:10;;;;;;;18.10;9.75;;;;;;;;;;5038234;28;20033;-76
2022/03/11 00:49:36;;;;;;;16.02;9.82;;;;;;;;;;5035271;28;20352;-75
2022/03/11 00:52:02;;;;;;;18.40;10.40;;;;;;;;;;5040618;28;20332;-76
2022/03/11 00:54:28;;;;;;;17.20;9.77;;;;;;;;;;5038829;28;20221;-76
2022/03/11 00:56:53;;;;;;;19.02;10.32;;;;;;;;;;5040204;28;20021;-75
2022/03/11 00:59:20;;;;;;;18.30;10.45;;;;;;;;;;5040910;28;20180;-76
2022/03/11 01:01:46;;;;;;;21.80;10.02;;;;;;;;;;5039493;28;20041;-76
2022/03/11 01:04:11;;;;;;;20.58;10.30;;;;;;;;;;5040215;28;20051;-76
2022/03/11 01:06:36;;;;;;;18.77;10.20;;;;;;;;;;5039298;28;20028;-77
2022/03/11 01:09:04;;;;;;;48.05;19.63;;;;;;;;;;5045467;28;20045;-76
2022/03/11 01:11:29;;;;;;;21.33;11.13;;;;;;;;;;5059180;28;20313;-76
2022/03/11 01:13:56;;;;;;;24.67;12.10;;;;;;;;;;5045998;28;20032;-76
2022/03/11 01:16:23;;;;;;;19.83;10.32;;;;;;;;;;5060079;28;20028;-76
2022/03/11 01:18:49;;;;;;;18.33;9.98;;;;;;;;;;5061217;28;20044;-76
2022/03/11 01:21:14;;;;;;;21.00;11.48;;;;;;;;;;5060710;28;20213;-79
2022/03/11 01:23:39;;;;;;;16.30;9.48;;;;;;;;;;5060709;28;20021;-77
2022/03/11 01:26:05;;;;;;;13.30;8.35;;;;;;;;;;5048675;28;20041;-84
2022/03/11 01:28:31;;;;;;;18.70;9.68;;;;;;;;;;5039547;28;20032;-78
2022/03/11 01:30:56;;;;;;;17.20;9.20;;;;;;;;;;5051118;28;20113;-77
2022/03/11 01:33:22;;;;;;;15.45;9.00;;;;;;;;;;5043537;28;20025;-83
2022/03/11 01:35:48;;;;;;;15.50;8.70;;;;;;;;;;5044183;28;20020;-77
2022/03/11 01:38:14;;;;;;;14.40;8.05;;;;;;;;;;5031920;28;20018;-77
2022/03/11 01:40:39;;;;;;;13.55;8.07;;;;;;;;;;5029159;28;20040;-77
2022/03/11 01:43:12;;;;;;;18.13;8.68;;;;;;;;;;5040702;28;20029;-77
2022/03/11 01:45:37;;;;;;;15.80;8.38;;;;;;;;;;5040541;28;20102;-81
2022/03/11 01:48:03;;;;;;;17.52;9.32;;;;;;;;;;5038218;28;20025;-86
2022/03/11 01:50:28;;;;;;;13.60;8.15;;;;;;;;;;5040273;28;20029;-81
2022/03/11 01:52:53;;;;;;;13.80;7.97;;;;;;;;;;5040467;28;20333;-85
2022/03/11 01:55:19;;;;;;;15.75;8.07;;;;;;;;;;5040243;28;20242;-84
2022/03/11 01:57:44;;;;;;;13.32;8.32;;;;;;;;;;5039496;28;20318;-87
2022/03/11 02:00:10;;;;;;;14.95;7.47;;;;;;;;;;5040369;28;20135;-77
2022/03/11 02:02:36;;;;;;;14.73;7.85;;;;;;;;;;5040103;28;20056;-87
2022/03/11 02:05:01;;;;;;;13.48;7.78;;;;;;;;;;5040086;28;20093;-84
2022/03/11 02:07:27;;;;;;;13.93;7.75;;;;;;;;;;5039754;28;20049;-77
2022/03/11 02:09:55;;;;;;;18.02;8.50;;;;;;;;;;5038769;28;20049;-76
2022/03/11 02:12:34;;;;;;;14.30;8.40;;;;;;;;;;5034587;28;20032;-76
2022/03/11 02:15:07;;;;;;;14.50;8.18;;;;;;;;;;5036771;28;20316;-75
2022/03/11 02:17:32;;;;;;;12.05;7.38;;;;;;;;;;5039000;28;20009;-75
2022/03/11 02:19:58;;;;;;;15.65;8.00;;;;;;;;;;5037924;28;20333;-77
2022/03/11 02:22:25;;;;;;;14.73;7.93;;;;;;;;;;5037421;28;20035;-75
2022/03/11 02:24:52;;;;;;;13.45;8.20;;;;;;;;;;5032608;28;20067;-75
2022/03/11 02:27:18;;;;;;;13.95;8.02;;;;;;;;;;5040305;28;20014;-75
2022/03/11 02:29:43;;;;;;;14.40;8.18;;;;;;;;;;5027441;28;20118;-75
2022/03/11 02:32:09;;;;;;;15.65;8.05;;;;;;;;;;5036925;28;20031;-76
2022/03/11 02:34:36;;;;;;;14.73;7.93;;;;;;;;;;5032566;28;20025;-76
2022/03/11 02:37:02;;;;;;;16.45;8.35;;;;;;;;;;5032008;28;20525;-77
2022/03/11 02:39:28;;;;;;;14.73;8.45;;;;;;;;;;5037584;28;20013;-76
2022/03/11 02:41:53;;;;;;;14.40;8.48;;;;;;;;;;5042163;28;20095;-75
2022/03/11 02:44:19;;;;;;;14.48;8.73;;;;;;;;;;5043118;28;20066;-76
2022/03/11 02:46:44;;;;;;;15.90;8.00;;;;;;;;;;5043076;28;20313;-76
2022/03/11 02:49:09;;;;;;;15.45;8.18;;;;;;;;;;5043385;28;20099;-76
2022/03/11 02:51:35;;;;;;;17.45;8.07;;;;;;;;;;5040534;28;20104;-76
2022/03/11 02:54:00;;;;;;;12.73;7.78;;;;;;;;;;5036081;28;20029;-76
2022/03/11 02:56:26;;;;;;;15.15;7.97;;;;;;;;;;5035413;28;20017;-75
2022/03/11 02:58:51;;;;;;;13.63;7.75;;;;;;;;;;5035716;28;20395;-75
2022/03/11 03:01:17;;;;;;;15.35;8.15;;;;;;;;;;5036607;28;20041;-76
2022/03/11 03:03:42;;;;;;;14.77;7.82;;;;;;;;;;5042121;28;20017;-74
2022/03/11 03:06:07;;;;;;;12.32;7.80;;;;;;;;;;5041222;28;20017;-74
2022/03/11 03:08:33;;;;;;;14.23;7.90;;;;;;;;;;5040104;28;20041;-76
2022/03/11 03:10:59;;;;;;;15.30;7.72;;;;;;;;;;5037245;28;20132;-76
2022/03/11 03:13:25;;;;;;;15.63;7.97;;;;;;;;;;5043629;28;20021;-81
2022/03/11 03:15:50;;;;;;;12.85;7.60;;;;;;;;;;5043229;28;20029;-82
2022/03/11 03:18:15;;;;;;;13.07;7.70;;;;;;;;;;5043230;28;20021;-77
2022/03/11 03:20:41;;;;;;;13.15;7.63;;;;;;;;;;5043306;28;20025;-80
2022/03/11 03:23:07;;;;;;;12.43;7.32;;;;;;;;;;5043271;28;20088;-80
2022/03/11 03:25:32;;;;;;;13.50;6.80;;;;;;;;;;5042491;28;20033;-81
2022/03/11 03:27:57;;;;;;;15.30;7.65;;;;;;;;;;5041172;28;20025;-81
2022/03/11 03:30:23;;;;;;;11.88;7.25;;;;;;;;;;5039373;28;20094;-80
2022/03/11 03:32:48;;;;;;;13.02;6.93;;;;;;;;;;5032116;28;20025;-81
2022/03/11 03:35:14;;;;;;;12.75;7.25;;;;;;;;;;5029766;28;20025;-82
2022/03/11 03:37:40;;;;;;;12.40;7.25;;;;;;;;;;5038716;28;20052;-80
2022/03/11 03:40:06;;;;;;;12.60;6.95;;;;;;;;;;5037208;28;20037;-81
2022/03/11 03:42:32;;;;;;;12.88;7.18;;;;;;;;;;5041471;28;20026;-82
2022/03/11 03:44:57;;;;;;;11.75;6.97;;;;;;;;;;5041485;28;20043;-81
2022/03/11 03:47:23;;;;;;;12.15;7.35;;;;;;;;;;5042148;28;20179;-81
2022/03/11 03:49:48;;;;;;;14.85;7.35;;;;;;;;;;5038254;28;20385;-81
2022/03/11 03:52:13;;;;;;;13.35;6.80;;;;;;;;;;5042045;28;20032;-81
2022/03/11 03:54:39;;;;;;;14.10;6.35;;;;;;;;;;5041900;28;20025;-83
2022/03/11 03:57:05;;;;;;;13.13;7.50;;;;;;;;;;5041367;28;20022;-81
2022/03/11 03:59:31;;;;;;;12.95;7.25;;;;;;;;;;5041975;28;20044;-82
2022/03/11 04:01:56;;;;;;;12.23;7.18;;;;;;;;;;5041580;28;20113;-81
2022/03/11 04:04:21;;;;;;;12.88;6.55;;;;;;;;;;5041429;28;20037;-80
2022/03/11 04:06:47;;;;;;;11.23;6.82;;;;;;;;;;5042476;28;20352;-78
2022/03/11 04:09:12;;;;;;;12.65;6.70;;;;;;;;;;5041371;28;20064;-80
2022/03/11 04:11:39;;;;;;;11.93;6.57;;;;;;;;;;5032089;28;20413;-80
2022/03/11 04:14:04;;;;;;;13.57;6.10;;;;;;;;;;5023232;28;20033;-79
2022/03/11 04:16:31;;;;;;;11.68;6.47;;;;;;;;;;5025874;28;20045;-81
2022/03/11 04:18:57;;;;;;;13.30;6.70;;;;;;;;;;5021245;28;20090;-82
2022/03/11 04:21:22;;;;;;;11.40;7.15;;;;;;;;;;5020820;28;20029;-79
2022/03/11 04:23:49;;;;;;;13.48;6.40;;;;;;;;;;5020970;28;20039;-79
2022/03/11 04:26:16;;;;;;;11.13;6.70;;;;;;;;;;5020967;28;20037;-82
2022/03/11 04:28:42;;;;;;;10.73;6.10;;;;;;;;;;5020863;28;20053;-80
2022/03/11 04:31:09;;;;;;;11.80;6.40;;;;;;;;;;5019852;28;20044;-81
2022/03/11 04:33:35;;;;;;;11.32;6.53;;;;;;;;;;5020850;28;20073;-81
2022/03/11 04:36:02;;;;;;;11.90;6.68;;;;;;;;;;5020773;28;20049;-81
2022/03/11 04:38:27;;;;;;;12.50;6.50;;;;;;;;;;5020844;28;20049;-76
2022/03/11 04:40:53;;;;;;;14.82;6.93;;;;;;;;;;5020737;28;20018;-75
2022/03/11 04:43:19;;;;;;;11.98;6.55;;;;;;;;;;5034193;28;20056;-75
2022/03/11 04:45:44;;;;;;;11.95;6.45;;;;;;;;;;5021686;28;20052;-75
2022/03/11 04:48:10;;;;;;;11.30;6.50;;;;;;;;;;5023331;28;20021;-75
2022/03/11 04:50:35;;;;;;;11.23;6.32;;;;;;;;;;5020080;28;20049;-75
2022/03/11 04:53:01;;;;;;;10.20;5.93;;;;;;;;;;5020535;28;20347;-75
2022/03/11 04:55:26;;;;;;;11.50;6.13;;;;;;;;;;5027507;28;20064;-75
2022/03/11 04:57:52;;;;;;;11.07;5.90;;;;;;;;;;5021807;28;20045;-75
2022/03/11 05:00:17;;;;;;;11.35;6.60;;;;;;;;;;5020512;28;20025;-75
2022/03/11 05:02:45;;;;;;;10.55;5.70;;;;;;;;;;5024144;28;20021;-75
2022/03/11 05:05:14;;;;;;;10.63;5.75;;;;;;;;;;5020526;28;20088;-75
2022/03/11 05:07:40;;;;;;;9.82;5.95;;;;;;;;;;5020057;28;20041;-76
2022/03/11 05:10:08;;;;;;;9.93;5.70;;;;;;;;;;5020210;28;20322;-76
2022/03/11 05:12:35;;;;;;;11.23;5.75;;;;;;;;;;5020376;28;20097;-75
2022/03/11 05:15:02;;;;;;;9.90;5.40;;;;;;;;;;5020372;28;20098;-74
2022/03/11 05:17:28;;;;;;;9.82;5.53;;;;;;;;;;5024001;28;20034;-77
2022/03/11 05:19:53;;;;;;;12.77;5.90;;;;;;;;;;5020297;28;20025;-80
2022/03/11 05:22:18;;;;;;;11.45;5.63;;;;;;;;;;5022633;28;20033;-79
2022/03/11 05:24:44;;;;;;;9.90;5.60;;;;;;;;;;5020656;28;20026;-75
2022/03/11 05:27:10;;;;;;;8.98;5.03;;;;;;;;;;5026275;28;20044;-74
2022/03/11 05:29:35;;;;;;;10.23;5.80;;;;;;;;;;5024042;28;20022;-75
2022/03/11 05:32:01;;;;;;;9.40;5.60;;;;;;;;;;5020167;28;20029;-75
2022/03/11 05:34:27;;;;;;;10.30;5.53;;;;;;;;;;5020008;28;20022;-75
2022/03/11 05:36:52;;;;;;;10.68;5.15;;;;;;;;;;5019927;28;20024;-75
2022/03/11 05:39:18;;;;;;;9.18;5.35;;;;;;;;;;5019836;28;20014;-74
2022/03/11 05:41:44;;;;;;;11.98;5.40;;;;;;;;;;5019529;28;20048;-75
2022/03/11 05:44:10;;;;;;;10.20;5.30;;;;;;;;;;5023257;28;20030;-77
2022/03/11 05:46:35;;;;;;;11.27;5.47;;;;;;;;;;5020022;28;20048;-75
2022/03/11 05:49:00;;;;;;;9.75;5.18;;;;;;;;;;5020072;28;20358;-75
2022/03/11 05:51:26;;;;;;;9.38;5.00;;;;;;;;;;5019641;28;20053;-74
2022/03/11 05:53:51;;;;;;;10.23;5.10;;;;;;;;;;5019535;28;20081;-74
2022/03/11 05:56:17;;;;;;;9.27;5.15;;;;;;;;;;5019865;28;20322;-74
2022/03/11 05:58:42;;;;;;;8.93;4.95;;;;;;;;;;5018632;28;20088;-74
2022/03/11 06:01:07;;;;;;;10.32;5.30;;;;;;;;;;5019430;28;20034;-75
2022/03/11 06:03:33;;;;;;;9.65;5.40;;;;;;;;;;5019602;28;20134;-75
2022/03/11 06:05:58;;;;;;;9.93;5.45;;;;;;;;;;5016608;28;20052;-78
2022/03/11 06:08:24;;;;;;;9.82;5.53;;;;;;;;;;5019841;28;20052;-80
2022/03/11 06:10:49;;;;;;;9.27;5.28;;;;;;;;;;5027470;28;20037;-82
2022/03/11 06:13:15;;;;;;;8.60;4.90;;;;;;;;;;5030693;28;20033;-79
2022/03/11 06:15:41;;;;;;;9.48;5.25;;;;;;;;;;5023311;28;20037;-82
2022/03/11 06:18:07;;;;;;;9.48;5.25;;;;;;;;;;5023436;28;20033;-81
2022/03/11 06:20:32;;;;;;;9.23;5.00;;;;;;;;;;5023331;28;20018;-82
2022/03/11 06:22:58;;;;;;;11.07;5.50;;;;;;;;;;5037395;28;20037;-80
2022/03/11 06:25:24;;;;;;;10.30;5.32;;;;;;;;;;5028597;28;20037;-76
2022/03/11 06:27:49;;;;;;;10.23;5.53;;;;;;;;;;5029374;28;20206;-76
2022/03/11 06:30:15;;;;;;;7.85;4.43;;;;;;;;;;5025075;28;20041;-76
2022/03/11 06:32:42;;;;;;;9.55;4.95;;;;;;;;;;5022793;28;20033;-76
2022/03/11 06:35:07;;;;;;;10.52;5.00;;;;;;;;;;5028905;28;20305;-81
2022/03/11 06:37:33;;;;;;;9.00;4.93;;;;;;;;;;5033043;28;20040;-76
2022/03/11 06:39:59;;;;;;;10.63;4.93;;;;;;;;;;5029156;28;20030;-77
2022/03/11 06:42:25;;;;;;;9.55;5.10;;;;;;;;;;5033849;28;20046;-79
2022/03/11 06:44:50;;;;;;;8.65;4.85;;;;;;;;;;5035393;28;20078;-78
2022/03/11 06:47:16;;;;;;;7.63;4.30;;;;;;;;;;5025473;28;20340;-79
2022/03/11 06:49:41;;;;;;;7.82;4.50;;;;;;;;;;5021493;28;20025;-79
2022/03/11 06:52:07;;;;;;;8.90;4.50;;;;;;;;;;5022559;28;20082;-80
2022/03/11 06:54:32;;;;;;;8.40;4.95;;;;;;;;;;5022249;28;20105;-80
2022/03/11 06:56:58;;;;;;;8.48;4.78;;;;;;;;;;5026696;28;20050;-79
2022/03/11 06:59:23;;;;;;;7.25;3.95;;;;;;;;;;5022686;28;20018;-79
2022/03/11 07:01:48;;;;;;;6.88;3.58;;;;;;;;;;5022118;28;20187;-81
2022/03/11 07:04:14;;;;;;;11.05;3.70;;;;;;;;;;5022290;28;20025;-79
2022/03/11 07:06:39;;;;;;;5.95;3.53;;;;;;;;;;5022258;28;20021;-80
2022/03/11 07:09:05;;;;;;;8.73;3.97;;;;;;;;;;5025425;28;20042;-80
2022/03/11 07:11:32;;;;;;;6.47;3.72;;;;;;;;;;5021400;28;20026;-80
2022/03/11 07:13:57;;;;;;;9.02;3.58;;;;;;;;;;5026824;28;20218;-80
2022/03/11 07:16:22;;;;;;;6.57;4.07;;;;;;;;;;5027267;28;20037;-79
2022/03/11 07:18:48;;;;;;;7.97;4.00;;;;;;;;;;5023762;28;20306;-80
2022/03/11 07:21:13;;;;;;;5.78;3.55;;;;;;;;;;5021738;28;20101;-79
2022/03/11 07:23:39;;;;;;;6.50;3.83;;;;;;;;;;5024970;28;20051;-81
2022/03/11 07:26:04;;;;;;;5.60;3.10;;;;;;;;;;5029704;28;20031;-81
2022/03/11 07:28:29;;;;;;;6.40;3.30;;;;;;;;;;5023962;28;20022;-81
2022/03/11 07:30:55;;;;;;;7.20;3.28;;;;;;;;;;5022781;28;20365;-82
2022/03/11 07:33:20;;;;;;;5.65;3.45;;;;;;;;;;5029843;28;20049;-80
2022/03/11 07:35:46;;;;;;;6.18;3.60;;;;;;;;;;5041730;28;20216;-81
2022/03/11 07:38:11;;;;;;;5.55;3.35;;;;;;;;;;5040019;28;20098;-82
2022/03/11 07:40:37;;;;;;;6.63;3.13;;;;;;;;;;5027295;28;20451;-80
2022/03/11 07:43:02;;;;;;;8.13;3.30;;;;;;;;;;5035877;28;20025;-84
2022/03/11 07:45:28;;;;;;;9.73;3.42;;;;;;;;;;5036993;28;20105;-80
2022/03/11 07:47:53;;;;;;;5.50;3.20;;;;;;;;;;5036524;28;20071;-81
2022/03/11 07:50:19;;;;;;;6.22;3.00;;;;;;;;;;5041351;28;20018;-81
2022/03/11 07:52:44;;;;;;;4.78;2.85;;;;;;;;;;5032403;28;20075;-82
2022/03/11 07:55:10;;;;;;;6.95;3.50;;;;;;;;;;5030668;28;20022;-80
2022/03/11 07:57:36;;;;;;;4.35;2.83;;;;;;;;;;5026687;28;20097;-80
2022/03/11 08:00:04;;;;;;;5.80;3.10;;;;;;;;;;5021414;28;20026;-81
2022/03/11 08:02:30;;;;;;;6.03;3.10;;;;;;;;;;5024697;28;20253;-82
2022/03/11 08:04:56;;;;;;;5.68;2.78;;;;;;;;;;5024344;28;20060;-81
2022/03/11 08:07:22;;;;;;;7.90;2.97;;;;;;;;;;5034785;28;20045;-80
2022/03/11 08:09:47;;;;;;;5.43;2.80;;;;;;;;;;5034951;28;20029;-81
2022/03/11 08:12:13;;;;;;;5.82;2.80;;;;;;;;;;5033817;28;20335;-82
2022/03/11 08:14:39;;;;;;;4.25;2.63;;;;;;;;;;5033925;28;20013;-82
2022/03/11 08:17:06;;;;;;;4.03;2.30;;;;;;;;;;5021703;28;20041;-81
2022/03/11 08:19:32;;;;;;;4.47;2.47;;;;;;;;;;5021066;28;20041;-80
2022/03/11 08:21:57;;;;;;;4.95;2.45;;;;;;;;;;5020893;28;20068;-82
2022/03/11 08:24:23;;;;;;;4.70;2.45;;;;;;;;;;5020639;28;20018;-81
2022/03/11 08:26:48;;;;;;;5.55;2.35;;;;;;;;;;5022174;28;20038;-82
2022/03/11 08:29:16;;;;;;;5.38;2.53;;;;;;;;;;5020143;28;20018;-82
2022/03/11 08:31:42;;;;;;;4.28;2.13;;;;;;;;;;5021241;28;20214;-81
2022/03/11 08:34:08;;;;;;;5.35;2.30;;;;;;;;;;5021256;28;20028;-78
2022/03/11 08:36:33;;;;;;;6.75;2.53;;;;;;;;;;5022060;28;20010;-79
2022/03/11 08:38:59;;;;;;;3.08;1.80;;;;;;;;;;5020598;28;20033;-82
2022/03/11 08:41:26;;;;;;;6.85;2.10;;;;;;;;;;5020548;28;20329;-82
2022/03/11 08:43:52;;;;;;;4.20;1.77;;;;;;;;;;5030100;28;20014;-82
2022/03/11 08:46:17;;;;;;;4.82;2.10;;;;;;;;;;5020576;28;20033;-82
2022/03/11 08:48:43;;;;;;;3.53;2.00;;;;;;;;;;5020503;28;20032;-79
2022/03/11 08:51:09;;;;;;;4.15;1.52;;;;;;;;;;5021417;28;20026;-79
2022/03/11 08:53:35;;;;;;;7.07;2.15;;;;;;;;;;5023898;28;20018;-80
2022/03/11 08:56:01;;;;;;;3.13;1.73;;;;;;;;;;5022901;28;20033;-80
2022/03/11 08:58:27;;;;;;;9.07;1.88;;;;;;;;;;5022269;28;20032;-80
2022/03/11 09:00:52;;;;;;;2.88;1.63;;;;;;;;;;5020284;28;20021;-80
2022/03/11 09:03:17;;;;;;;4.07;1.75;;;;;;;;;;5029802;28;20037;-78
2022/03/11 09:05:43;;;;;;;5.80;1.58;;;;;;;;;;5025488;28;20029;-77
2022/03/11 09:08:09;;;;;;;2.40;1.40;;;;;;;;;;5033986;28;20092;-77
2022/03/11 09:10:35;;;;;;;3.95;1.40;;;;;;;;;;5032777;28;20037;-78
2022/03/11 09:13:01;;;;;;;7.53;1.95;;;;;;;;;;5036307;28;20342;-80
2022/03/11 09:15:26;;;;;;;2.83;1.67;;;;;;;;;;5027897;28;20124;-79
2022/03/11 09:17:52;;;;;;;3.42;1.50;;;;;;;;;;5021230;28;20029;-79
2022/03/11 09:20:17;;;;;;;3.65;1.80;;;;;;;;;;5020780;28;20040;-79
2022/03/11 09:22:43;;;;;;;5.47;2.08;;;;;;;;;;5027507;28;20029;-79
2022/03/11 09:25:12;;;;;;;4.68;1.73;;;;;;;;;;5020691;28;20029;-79
2022/03/11 09:27:39;;;;;;;4.38;2.13;;;;;;;;;;5028098;28;20093;-78
2022/03/11 09:30:07;;;;;;;3.42;1.88;;;;;;;;;;5040638;28;20321;-76
2022/03/11 09:32:32;;;;;;;4.20;1.95;;;;;;;;;;5040563;28;20021;-79
2022/03/11 09:34:59;;;;;;;4.50;2.00;;;;;;;;;;5036578;28;20264;-79
2022/03/11 09:37:25;;;;;;;4.05;1.80;;;;;;;;;;5039074;28;20022;-79
2022/03/11 09:39:51;;;;;;;4.18;1.90;;;;;;;;;;5027789;28;20021;-79
2022/03/11 09:42:16;;;;;;;2.70;1.50;;;;;;;;;;5027403;28;20030;-79
2022/03/11 09:44:49;;;;;;;3.75;1.65;;;;;;;;;;5027520;28;20049;-80
2022/03/11 09:47:14;;;;;;;5.38;1.80;;;;;;;;;;5027476;28;20218;-78
2022/03/11 09:49:40;;;;;;;4.22;2.00;;;;;;;;;;5033524;28;20023;-80
2022/03/11 09:52:06;;;;;;;6.10;1.90;;;;;;;;;;5059541;28;20022;-79
2022/03/11 09:54:32;;;;;;;5.07;1.85;;;;;;;;;;5027767;28;20314;-77
2022/03/11 09:56:58;;;;;;;4.15;1.77;;;;;;;;;;5043294;28;20096;-83
2022/03/11 09:59:23;;;;;;;6.47;2.05;;;;;;;;;;5027674;28;20026;-81
2022/03/11 10:01:49;;;;;;;4.95;1.90;;;;;;;;;;5039342;28;20056;-81
2022/03/11 10:04:15;;;;;;;11.15;1.88;;;;;;;;;;5032438;28;20025;-78
2022/03/11 10:06:45;;;;;;;4.68;1.80;;;;;;;;;;5046893;28;20314;-79
2022/03/11 10:09:19;;;;;;;2.97;1.80;;;;;;;;;;5033207;28;20034;-78
2022/03/11 10:11:52;;;;;;;3.10;1.73;;;;;;;;;;5027421;28;20041;-79
2022/03/11 10:14:27;;;;;;;3.67;2.40;;;;;;;;;;5032459;28;20030;-76
2022/03/11 10:16:52;;;;;;;4.93;1.80;;;;;;;;;;5044413;28;20027;-77
2022/03/11 10:19:19;;;;;;;3.45;1.83;;;;;;;;;;5043137;28;20038;-75
2022/03/11 10:21:46;;;;;;;7.15;2.30;;;;;;;;;;5027210;28;20105;-76
2022/03/11 10:24:14;;;;;;;3.92;1.80;;;;;;;;;;5042625;28;20053;-76
2022/03/11 10:26:51;;;;;;;4.68;2.00;;;;;;;;;;5027338;28;20025;-77
2022/03/11 10:29:17;;;;;;;2.80;1.73;;;;;;;;;;5027176;28;20033;-74
2022/03/11 10:31:45;;;;;;;5.97;1.73;;;;;;;;;;5027297;28;20030;-77
2022/03/11 10:34:20;;;;;;;4.55;1.67;;;;;;;;;;5027225;28;20053;-77
2022/03/11 10:36:50;;;;;;;3.42;1.90;;;;;;;;;;5026964;28;20185;-77
2022/03/11 10:39:23;;;;;;;3.67;1.58;;;;;;;;;;5026835;28;20485;-76
2022/03/11 10:41:50;;;;;;;4.57;1.85;;;;;;;;;;5037346;28;20064;-76
2022/03/11 10:44:19;;;;;;;4.28;2.22;;;;;;;;;;5047266;28;20044;-77
2022/03/11 10:46:45;;;;;;;3.50;1.27;;;;;;;;;;5050034;28;20087;-76
2022/03/11 10:49:11;;;;;;;5.07;1.60;;;;;;;;;;5038024;28;20041;-76
2022/03/11 10:51:38;;;;;;;4.60;1.60;;;;;;;;;;5023863;28;20089;-78
2022/03/11 10:54:07;;;;;;;2.38;1.30;;;;;;;;;;5023183;28;20018;-77
2022/03/11 10:56:35;;;;;;;4.03;2.20;;;;;;;;;;5023655;28;20194;-77
2022/03/11 10:59:23;;;;;;;4.18;1.88;;;;;;;;;;5029090;28;20032;-80
2022/03/11 11:01:51;;;;;;;7.45;2.10;;;;;;;;;;5025081;28;20030;-77
2022/03/11 11:04:18;;;;;;;4.25;1.95;;;;;;;;;;5030049;28;20033;-77
2022/03/11 11:06:44;;;;;;;5.03;1.70;;;;;;;;;;5034301;28;20048;-77
2022/03/11 11:09:10;;;;;;;4.53;2.22;;;;;;;;;;5023459;28;20100;-77
2022/03/11 11:11:37;;;;;;;3.30;2.00;;;;;;;;;;5039345;28;20029;-78
2022/03/11 11:14:06;;;;;;;3.72;1.88;;;;;;;;;;5027143;28;20221;-75
2022/03/11 11:16:39;;;;;;;5.35;2.03;;;;;;;;;;5037498;28;20347;-81
2022/03/11 11:19:07;;;;;;;4.97;2.30;;;;;;;;;;5042184;28;20022;-78
2022/03/11 11:21:34;;;;;;;3.20;1.77;;;;;;;;;;5043027;28;20026;-79
2022/03/11 11:24:01;;;;;;;10.65;2.55;;;;;;;;;;5040753;28;20056;-79
2022/03/11 11:26:27;;;;;;;4.22;2.55;;;;;;;;;;5023474;28;20025;-81
2022/03/11 11:28:55;;;;;;;5.43;2.45;;;;;;;;;;5027876;28;20108;-82
2022/03/11 11:31:21;;;;;;;4.43;2.17;;;;;;;;;;5034387;28;20026;-82
2022/03/11 11:33:47;;;;;;;4.40;1.95;;;;;;;;;;5023255;28;20017;-79
2022/03/11 11:36:31;;;;;;;7.75;2.30;;;;;;;;;;5022898;28;20041;-77
2022/03/11 11:39:01;;;;;;;7.03;2.30;;;;;;;;;;5024925;28;20070;-78
2022/03/11 11:41:27;;;;;;;4.35;2.33;;;;;;;;;;5042395;28;20359;-75
2022/03/11 11:44:01;;;;;;;8.95;2.45;;;;;;;;;;5040151;28;20037;-75
2022/03/11 11:46:34;;;;;;;6.53;2.38;;;;;;;;;;5037785;28;20241;-75
2022/03/11 11:49:03;;;;;;;3.67;2.10;;;;;;;;;;5042534;28;20029;-74
2022/03/11 11:51:31;;;;;;;3.30;1.90;;;;;;;;;;5037708;28;20068;-75
2022/03/11 11:54:08;;;;;;;3.83;2.40;;;;;;;;;;5023031;28;20026;-75
2022/03/11 11:56:43;;;;;;;6.13;2.60;;;;;;;;;;5022798;28;20064;-74
2022/03/11 11:59:10;;;;;;;;;;;;;;;;;;5022499;28;20330;-74
2022/03/11 12:01:39;;;;;;;4.00;2.03;;;;;;;;;;5022486;28;19909;-74
2022/03/11 12:04:28;;;;;;;3.78;1.88;;;;;;;;;;5030258;28;20072;-75
2022/03/11 12:06:56;;;;;;;5.60;2.67;;;;;;;;;;5030521;28;20324;-75
2022/03/11 12:09:45;;;;;;;4.78;2.40;;;;;;;;;;5039191;28;20049;-74
2022/03/11 12:12:26;;;;;;;5.30;2.22;;;;;;;;;;5026877;28;20037;-74
2022/03/11 12:14:57;;;;;;;4.93;2.03;;;;;;;;;;5027767;28;20032;-76
2022/03/11 12:18:01;;;;;;;4.07;2.20;;;;;;;;;;5029493;28;20053;-77
2022/03/11 12:20:35;;;;;;;4.65;2.50;;;;;;;;;;5041408;28;20036;-73
2022/03/11 12:23:03;;;;;;;5.80;2.70;;;;;;;;;;5041619;28;20022;-76
2022/03/11 12:25:37;;;;;;;5.15;2.70;;;;;;;;;;5043321;28;20052;-76
2022/03/11 12:28:08;;;;;;;6.05;2.38;;;;;;;;;;5052956;28;20079;-77
2022/03/11 12:30:39;;;;;;;5.50;2.83;;;;;;;;;;5023256;28;20089;-80
2022/03/11 12:33:07;;;;;;;5.00;2.30;;;;;;;;;;5041649;28;20356;-77
2022/03/11 12:35:33;;;;;;;5.45;2.95;;;;;;;;;;5038971;28;20037;-80
2022/03/11 12:37:59;;;;;;;4.00;2.47;;;;;;;;;;5021734;28;20105;-76
2022/03/11 12:40:26;;;;;;;8.38;3.13;;;;;;;;;;5021955;28;20025;-77
2022/03/11 12:42:58;;;;;;;9.95;2.78;;;;;;;;;;5021253;28;20105;-77
2022/03/11 12:45:38;;;;;;;3.63;1.98;;;;;;;;;;5022121;28;20030;-76
2022/03/11 12:48:05;;;;;;;3.70;2.10;;;;;;;;;;5022272;28;20106;-76
2022/03/11 12:50:30;;;;;;;5.00;2.97;;;;;;;;;;5021797;28;20038;-74
2022/03/11 12:52:58;;;;;;;4.85;2.63;;;;;;;;;;5029024;28;20095;-79
2022/03/11 12:55:33;;;;;;;4.47;3.05;;;;;;;;;;5021621;28;20218;-82
2022/03/11 12:58:04;;;;;;;7.35;2.83;;;;;;;;;;5035102;28;20032;-80
2022/03/11 13:00:32;;;;;;;4.82;2.20;;;;;;;;;;5022197;28;20090;-80
2022/03/11 13:02:59;;;;;;;6.45;2.60;;;;;;;;;;5021563;28;20037;-77
2022/03/11 13:05:31;;;;;;;4.28;2.60;;;;;;;;;;5021519;28;20037;-79
2022/03/11 13:08:08;;;;;;;4.80;2.63;;;;;;;;;;5038205;28;20102;-79
2022/03/11 13:10:34;;;;;;;4.13;2.58;;;;;;;;;;5041494;28;20045;-80
2022/03/11 13:13:01;;;;;;;6.90;3.22;;;;;;;;;;5021462;28;20089;-81
2022/03/11 13:15:30;;;;;;;6.13;3.10;;;;;;;;;;5021803;28;20025;-79
2022/03/11 13:18:03;;;;;;;7.90;3.50;;;;;;;;;;5027414;28;20341;-77
2022/03/11 13:20:33;;;;;;;5.10;2.80;;;;;;;;;;5050086;28;20233;-76
2022/03/11 13:23:07;;;;;;;6.25;3.10;;;;;;;;;;5021215;28;20310;-77
2022/03/11 13:25:33;;;;;;;5.35;2.50;;;;;;;;;;5024962;28;20096;-75
2022/03/11 13:27:59;;;;;;;7.75;3.45;;;;;;;;;;5026351;28;20310;-78
2022/03/11 13:30:35;;;;;;;5.97;3.20;;;;;;;;;;5041137;28;20321;-78
2022/03/11 13:33:20;;;;;;;6.03;3.20;;;;;;;;;;5022457;28;20025;-78
2022/03/11 13:35:47;;;;;;;5.55;3.40;;;;;;;;;;5021233;28;20279;-79
2022/03/11 13:38:47;;;;;;;6.72;3.55;;;;;;;;;;5020980;28;20033;-78
2022/03/11 13:41:32;;;;;;;4.32;2.72;;;;;;;;;;5019227;28;20033;-80
2022/03/11 13:44:04;;;;;;;6.05;2.83;;;;;;;;;;5021207;28;20660;-80
2022/03/11 13:46:31;;;;;;;5.70;3.17;;;;;;;;;;5020904;28;20038;-78
2022/03/11 13:49:09;;;;;;;8.00;2.97;;;;;;;;;;5021004;28;20021;-82
2022/03/11 13:51:53;;;;;;;7.35;3.22;;;;;;;;;;5020856;28;20030;-78
2022/03/11 13:54:29;;;;;;;4.38;2.53;;;;;;;;;;5020778;28;20026;-77
2022/03/11 13:56:57;;;;;;;6.10;2.95;;;;;;;;;;5020875;28;20034;-78
2022/03/11 13:59:34;;;;;;;6.38;3.10;;;;;;;;;;5021206;28;20080;-81
2022/03/11 14:02:20;;;;;;;5.65;2.90;;;;;;;;;;5031149;28;20037;-80
2022/03/11 14:04:46;;;;;;;4.05;2.65;;;;;;;;;;5020908;28;20037;-82
2022/03/11 14:07:14;;;;;;;6.57;2.95;;;;;;;;;;5020579;28;20072;-80
2022/03/11 14:09:40;;;;;;;6.45;3.38;;;;;;;;;;5027617;28;20017;-75
2022/03/11 14:12:06;;;;;;;6.18;3.10;;;;;;;;;;5021006;28;20037;-77
2022/03/11 14:14:34;;;;;;;5.93;3.38;;;;;;;;;;5021073;28;20119;-78
2022/03/11 14:17:03;;;;;;;6.05;2.47;;;;;;;;;;5020842;28;20068;-75
2022/03/11 14:19:28;;;;;;;4.85;2.80;;;;;;;;;;5039364;28;20072;-76
2022/03/11 14:21:54;;;;;;;7.13;3.22;;;;;;;;;;5061182;28;20036;-77
2022/03/11 14:24:21;;;;;;;7.20;2.85;;;;;;;;;;5064469;28;20338;-76
2022/03/11 14:26:47;;;;;;;6.03;3.10;;;;;;;;;;5064399;28;20033;-77
2022/03/11 14:29:13;;;;;;;6.05;3.03;;;;;;;;;;5062004;28;20021;-76
2022/03/11 14:31:38;;;;;;;5.65;2.92;;;;;;;;;;5049446;28;20033;-81
2022/03/11 14:34:05;;;;;;;7.13;3.15;;;;;;;;;;5024276;28;20225;-75
2022/03/11 14:36:30;;;;;;;4.40;2.97;;;;;;;;;;5043056;28;20392;-77
2022/03/11 14:38:56;;;;;;;5.95;2.92;;;;;;;;;;5043751;28;20029;-78